Dahinda, Illinois
Current Conditions -  °F | °C
As of 11:55 AM on Monday 24 Nov 2014 (Local Time) from KGBG Reporting Station
Overcast Overcast  
Wind Chill: 17°   Ceiling: 1400
Heat Index: 30°   Visibility: 10mi
Dew Point: 27°   Wind: 22mph
Humidity: 87%   Direction: 260°W
Pressure: 29.52"   Gusts: 28mph
Location:  40.92°N, 90.11°W
Report Text: KGBG 241755Z AUTO 26019G24KT 10SM OVC014 M01/M03 A2952 RMK AO2 T10111030 10000 21011
Loading
Personal Weather Stations






























Interactive Weather Map New forecast layout! Learn more

10-Day Weather Forecast

Advertisements
Track Severe Weather on mobile